Roxbury, MA (02120)

3:48 AM EDT on September 02, 2015 (GMT -0400)
South End, Boston, MA | | Change Station
CLOSE
Current Station
Personal Weather Station
Location: Boston, MA
Elevation: 33 ft
Nearby Weather Stations

Elev 33 ft 42.34 °N, 71.08 °W | Updated 4 minutes ago

Clear
Clear
68.2 °F
Feels Like 68.2 °F
N
0.0
Wind Variable Wind from ESE

Today
High -- | Low -- °F
--% Chance of Precip.
Yesterday
High -- | Low -- °F
Precip. -- in
6:10 AM 7:17 PM
Waning Gibbous, 82% visible
Pressure 30.01 in
Visibility 10.0 miles
Clouds Clear
Dew Point 59 °F
Humidity 73%
Rainfall 0.00 in
Snow Depth Not available.
UV 0 out of 12
Pollen 9.10 out of 12
Air Quality Not available.
Flu Activity Not available.
METAR KBOS 020654Z 22010KT 10SM CLR 21/17 A3001 RMK AO2 SLP163 T02060167
Pressure 30.01 in
Visibility 10.0 miles
Clouds Clear
Dew Point 59 °F
Humidity 73%
Rainfall 0.00 in
Snow Depth Not available.
UV 0 out of 12
Pollen 9.10 out of 12
Air Quality Not available.
Flu Activity Not available.
METAR KBOS 020654Z 22010KT 10SM CLR 21/17 A3001 RMK AO2 SLP163 T02060167

10-Day Weather Forecast

×

Almanac

Astronomy

Sep. 02, 2015 Rise Set
Actual Time
Civil Twilight
Nautical Twilight
Astronomical Twilight
Moon
Length of Visible Light
Length of Day
Tomorrow will be .
, % of the Moon is Illuminated

Today's Extremes

State Highs State Lows

Community

WunderPhotos

Upload Photos

1,851,723 photos uploaded!

WunderBlogs® & News

Nearby

Air Quality

  Air Quality AQ Index Pollutant
Not available.

Snow Depth

Station Depth Elevation

Earthquake Activity

City Distance Mag. Time & Date
Minimum magnitude displayed is 2.5.

Coastal Water Temperatures

Place Temperature

Stations

Nearby Weather Stations

Station Location Temp. Windchill Dew Point Humidity Wind Precip. Elev Updated Type